| time (UTC) | temp C | wind direction | speed KPH | gust KPH | rain 1hr cm | rain 24hr cm | rain mn cm | humidity % | barometer mb |
| 20260508010039 | 23 | 126 | 1.6 | 6.4 | 0.00 | 0.64 | 0.00 | 94 | 1008.2 |
| 20260508004536 | 23 | 120 | 3.2 | 9.7 | 0.00 | 0.64 | 0.00 | 95 | 1008.1 |
| 20260508003033 | 23 | 70 | 1.6 | 3.2 | 0.00 | 0.64 | 0.00 | 96 | 1007.9 |
| 20260508001532 | 23 | 70 | 0.0 | 0.0 | 0.00 | 0.64 | 0.00 | 96 | 1007.7 |
| 20260508000030 | 23 | 70 | 0.0 | 1.6 | 0.00 | 0.64 | 0.00 | 96 | 1007.5 |
| 20260507234528 | 23 | 69 | 0.0 | 0.0 | 0.00 | 0.64 | 0.00 | 96 | 1007.2 |
| 20260507233039 | 23 | 69 | 0.0 | 1.6 | 0.00 | 0.64 | 0.00 | 96 | 1007.1 |
| 20260507231534 | 23 | 69 | 0.0 | 0.0 | 0.00 | 0.64 | 0.00 | 96 | 1006.9 |
| 20260507230027 | 23 | 68 | 0.0 | 0.0 | 0.00 | 0.64 | 0.00 | 96 | 1006.6 |
| 20260507224531 | 23 | 69 | 0.0 | 1.6 | 0.00 | 0.64 | 0.00 | 95 | 1006.3 |
| 20260507223025 | 23 | 71 | 0.0 | 1.6 | 0.00 | 0.64 | 0.00 | 95 | 1006.1 |
| 20260507221533 | 23 | 70 | 0.0 | 0.0 | 0.00 | 0.64 | 0.00 | 95 | 1006.0 |
| 20260507220024 | 23 | 70 | 0.0 | 0.0 | 0.00 | 0.64 | 0.00 | 95 | 1005.9 |
| 20260507214522 | 23 | 70 | 0.0 | 1.6 | 0.00 | 0.64 | 0.00 | 95 | 1005.8 |
| 20260507213022 | 23 | 69 | 0.0 | 1.6 | 0.00 | 0.64 | 0.00 | 95 | 1005.8 |
| 20260507211523 | 22 | 70 | 0.0 | 0.0 | 0.00 | 0.64 | 0.00 | 95 | 1005.7 |
| 20260507210019 | 23 | 70 | 0.0 | 1.6 | 0.00 | 0.64 | 0.00 | 94 | 1005.7 |
| 20260507204518 | 23 | 71 | 0.0 | 1.6 | 0.00 | 0.64 | 0.00 | 94 | 1005.7 |
| 20260507203023 | 23 | 70 | 0.0 | 4.8 | 0.00 | 0.64 | 0.00 | 94 | 1005.8 |
| 20260507201520 | 23 | 68 | 0.0 | 3.2 | 0.00 | 0.64 | 0.00 | 95 | 1005.6 |
| 20260507200016 | 22 | 69 | 0.0 | 1.6 | 0.00 | 0.64 | 0.00 | 95 | 1005.7 |
| 20260507194518 | 23 | 70 | 0.0 | 1.6 | 0.00 | 0.64 | 0.00 | 95 | 1005.8 |
| 20260507193014 | 22 | 71 | 0.0 | 4.8 | 0.00 | 0.64 | 0.00 | 95 | 1005.8 |
| 20260507191512 | 22 | 68 | 0.0 | 3.2 | 0.00 | 0.64 | 0.00 | 94 | 1005.8 |
| 20260507190010 | 22 | 69 | 0.0 | 3.2 | 0.00 | 0.64 | 0.00 | 94 | 1006.1 |
| 20260507184508 | 23 | 70 | 0.0 | 3.2 | 0.00 | 0.64 | 0.00 | 94 | 1006.6 |
| 20260507183010 | 23 | 69 | 0.0 | 1.6 | 0.00 | 0.64 | 0.00 | 94 | 1006.9 |
| 20260507181504 | 23 | 70 | 0.0 | 1.6 | 0.00 | 0.64 | 0.00 | 94 | 1007.0 |
| 20260507180004 | 23 | 67 | 0.0 | 1.6 | 0.00 | 0.64 | 0.00 | 94 | 1007.1 |
| 20260507174502 | 23 | 70 | 0.0 | 1.6 | 0.00 | 0.64 | 0.00 | 94 | 1007.3 |
| 20260507173104 | 23 | 71 | 0.0 | 1.6 | 0.03 | 0.64 | 0.00 | 94 | 1007.2 |
| 20260507171605 | 23 | 70 | 0.0 | 3.2 | 0.03 | 0.64 | 0.00 | 93 | 1007.3 |
| 20260507164601 | 23 | 149 | 3.2 | 8.0 | 0.03 | 0.64 | 0.64 | 93 | 1007.1 |
| 20260507163055 | 23 | 168 | 0.0 | 3.2 | 0.03 | 0.61 | 0.61 | 93 | 1007.5 |
| 20260507161555 | 23 | 168 | 0.0 | 3.2 | 0.05 | 0.61 | 0.61 | 93 | 1007.7 |
| 20260507160056 | 23 | 359 | 0.0 | 3.2 | 0.05 | 0.61 | 0.61 | 93 | 1007.6 |
| 20260507154558 | 23 | 165 | 1.6 | 8.0 | 0.08 | 0.61 | 0.61 | 93 | 1007.6 |
| 20260507153052 | 23 | 189 | 0.0 | 4.8 | 0.08 | 0.61 | 0.61 | 93 | 1007.6 |
| 20260507151550 | 23 | 187 | 1.6 | 6.4 | 0.15 | 0.58 | 0.58 | 93 | 1007.1 |
| 20260507150048 | 23 | 187 | 1.6 | 4.8 | 0.36 | 0.56 | 0.56 | 92 | 1006.9 |
| 20260507144546 | 23 | 359 | 1.6 | 14.5 | 0.53 | 0.53 | 0.53 | 89 | 1006.2 |
| 20260507143045 | 24 | 212 | 11.3 | 20.9 | 0.51 | 0.51 | 0.51 | 90 | 1005.9 |
| 20260507141552 | 25 | 359 | 6.4 | 12.9 | 0.43 | 0.43 | 0.43 | 86 | 1005.8 |
| 20260507140044 | 26 | 156 | 3.2 | 16.1 | 0.18 | 0.18 | 0.18 | 81 | 1005.5 |
| 20260507134544 | 27 | 125 | 14.5 | 38.6 | 0.00 | 0.00 | 0.00 | 71 | 1005.7 |
| 20260507133059 | 29 | 60 | 11.3 | 30.6 | 0.00 | 0.00 | 0.00 | 68 | 1004.9 |
| 20260507131550 | 29 | 71 | 6.4 | 12.9 | 0.00 | 0.00 | 0.00 | 71 | 1004.1 |
| 20260507130055 | 30 | 233 | 3.2 | 8.0 | 0.00 | 0.00 | 0.00 | 72 | 1003.5 |
| 20260507124541 | 30 | 253 | 3.2 | 9.7 | 0.00 | 0.00 | 0.00 | 72 | 1002.8 |
| 20260507123041 | 31 | 225 | 0.0 | 8.0 | 0.00 | 0.00 | 0.00 | 70 | 1002.4 |
| 20260507121540 | 31 | 214 | 6.4 | 14.5 | 0.00 | 0.00 | 0.00 | 69 | 1002.0 |
| 20260507120052 | 32 | 21 | 0.0 | 4.8 | 0.00 | 0.00 | 0.00 | 64 | 1000.8 |
| 20260507114612 | 32 | 22 | 0.0 | 4.8 | 0.00 | 0.00 | 0.00 | 65 | 1000.4 |
| 20260507113039 | 32 | 22 | 0.0 | 4.8 | 0.00 | 0.00 | 0.00 | 64 | 1000.3 |
| 20260507111539 | 32 | 22 | 0.0 | 1.6 | 0.00 | 0.00 | 0.00 | 65 | 1000.2 |
| 20260507110039 | 32 | 22 | 0.0 | 6.4 | 0.00 | 0.00 | 0.00 | 64 | 1000.0 |
| 20260507104538 | 32 | 22 | 0.0 | 4.8 | 0.00 | 0.00 | 0.00 | 63 | 999.8 |
| 20260507103037 | 31 | 22 | 0.0 | 6.4 | 0.00 | 0.00 | 0.00 | 65 | 999.4 |
| 20260507101542 | 31 | 18 | 1.6 | 6.4 | 0.00 | 0.00 | 0.00 | 65 | 999.3 |
| 20260507100036 | 31 | 354 | 3.2 | 8.0 | 0.00 | 0.00 | 0.00 | 65 | 999.8 |
| 20260507094534 | 31 | 344 | 3.2 | 12.9 | 0.00 | 0.00 | 0.00 | 67 | 999.9 |
| 20260507093034 | 31 | 319 | 3.2 | 14.5 | 0.00 | 0.00 | 0.00 | 65 | 999.8 |
| 20260507091542 | 32 | 312 | 9.7 | 19.3 | 0.00 | 0.00 | 0.00 | 64 | 1000.1 |
| 20260507090037 | 33 | 218 | 0.0 | 6.4 | 0.00 | 0.00 | 0.00 | 65 | 999.8 |
| 20260507084532 | 33 | 217 | 0.0 | 4.8 | 0.00 | 0.00 | 0.00 | 62 | 999.9 |
| 20260507083033 | 34 | 217 | 1.6 | 6.4 | 0.00 | 0.00 | 0.00 | 60 | 999.9 |
| 20260507081531 | 35 | 214 | 0.0 | 6.4 | 0.00 | 0.00 | 0.00 | 59 | 999.7 |
| 20260507080030 | 36 | 223 | 3.2 | 14.5 | 0.00 | 0.00 | 0.00 | 51 | 1000.0 |
| 20260507074527 | 36 | 256 | 6.4 | 12.9 | 0.00 | 0.00 | 0.00 | 54 | 1000.3 |
| 20260507073023 | 36 | 243 | 4.8 | 12.9 | 0.00 | 0.00 | 0.00 | 52 | 1000.6 |
| 20260507071521 | 36 | 216 | 4.8 | 11.3 | 0.00 | 0.00 | 0.00 | 54 | 1000.8 |
| 20260507070024 | 36 | 258 | 1.6 | 9.7 | 0.00 | 0.00 | 0.00 | 56 | 1001.3 |
| 20260507064514 | 36 | 239 | 1.6 | 4.8 | 0.00 | 0.00 | 0.00 | 53 | 1001.5 |
| 20260507063011 | 35 | 265 | 4.8 | 11.3 | 0.00 | 0.00 | 0.00 | 58 | 1001.9 |
| 20260507061508 | 35 | 233 | 3.2 | 12.9 | 0.00 | 0.00 | 0.00 | 54 | 1002.3 |
| 20260507060004 | 35 | 266 | 1.6 | 9.7 | 0.00 | 0.00 | 0.00 | 60 | 1002.7 |
| 20260507054600 | 35 | 258 | 1.6 | 11.3 | 0.00 | 0.00 | 0.00 | 60 | 1003.2 |
| 20260507053059 | 35 | 247 | 4.8 | 8.0 | 0.00 | 0.00 | 0.00 | 62 | 1003.6 |
| 20260507051553 | 35 | 283 | 1.6 | 9.7 | 0.00 | 0.00 | 0.00 | 61 | 1003.9 |
| 20260507050050 | 34 | 280 | 3.2 | 9.7 | 0.00 | 0.00 | 0.00 | 67 | 1004.2 |
| 20260507044545 | 33 | 204 | 3.2 | 9.7 | 0.00 | 0.00 | 0.00 | 68 | 1004.4 |
| 20260507043043 | 33 | 204 | 3.2 | 8.0 | 0.00 | 0.00 | 0.00 | 68 | 1004.6 |
| 20260507041540 | 32 | 185 | 1.6 | 6.4 | 0.00 | 0.00 | 0.00 | 70 | 1004.8 |
| 20260507040042 | 32 | 181 | 4.8 | 9.7 | 0.00 | 0.00 | 0.00 | 71 | 1004.9 |
| 20260507034537 | 31 | 174 | 1.6 | 8.0 | 0.00 | 0.00 | 0.00 | 72 | 1005.1 |
| 20260507033032 | 31 | 174 | 3.2 | 9.7 | 0.00 | 0.00 | 0.00 | 73 | 1005.3 |
| 20260507031530 | 30 | 174 | 4.8 | 9.7 | 0.00 | 0.00 | 0.00 | 73 | 1005.5 |
| 20260507030028 | 30 | 118 | 1.6 | 6.4 | 0.00 | 0.00 | 0.00 | 75 | 1005.7 |
| 20260507024527 | 30 | 103 | 1.6 | 11.3 | 0.00 | 0.00 | 0.00 | 76 | 1005.8 |
| 20260507023024 | 30 | 144 | 0.0 | 6.4 | 0.00 | 0.00 | 0.00 | 80 | 1006.0 |
| 20260507021523 | 28 | 145 | 1.6 | 6.4 | 0.00 | 0.00 | 0.00 | 80 | 1006.1 |
| 20260507020021 | 28 | 136 | 3.2 | 8.0 | 0.00 | 0.00 | 0.00 | 81 | 1006.2 |
| 20260507014526 | 28 | 75 | 1.6 | 6.4 | 0.00 | 0.00 | 0.00 | 81 | 1006.1 |
| 20260507013037 | 27 | 75 | 1.6 | 4.8 | 0.00 | 0.00 | 0.00 | 84 | 1006.2 |
| 20260507011514 | 27 | 74 | 0.0 | 4.8 | 0.00 | 0.00 | 0.00 | 85 | 1006.3 |